createdAt,value
2022-11-20T00:00:08.360Z,7.68
2022-11-20T00:02:56.095Z,7.72
2022-11-20T00:05:23.410Z,6.70
2022-11-20T00:07:52.574Z,7.47
2022-11-20T00:10:19.951Z,7.72
2022-11-20T00:12:47.759Z,5.88
2022-11-20T00:15:15.195Z,7.13
2022-11-20T00:17:42.963Z,7.20
2022-11-20T00:20:11.872Z,6.57
2022-11-20T00:22:39.786Z,6.07
2022-11-20T00:25:09.351Z,5.68
2022-11-20T00:27:37.238Z,7.15
2022-11-20T00:30:05.157Z,7.05
2022-11-20T00:32:33.096Z,6.45
2022-11-20T00:35:00.673Z,6.15
2022-11-20T00:37:28.599Z,6.97
2022-11-20T00:39:55.916Z,7.13
2022-11-20T00:42:25.156Z,5.38
2022-11-20T00:44:53.421Z,6.35
2022-11-20T00:47:21.263Z,6.85
2022-11-20T00:49:48.611Z,6.45
2022-11-20T00:52:16.484Z,6.05
2022-11-20T00:54:44.120Z,6.72
2022-11-20T00:57:12.067Z,7.68
2022-11-20T00:59:40.756Z,7.03
2022-11-20T01:02:08.635Z,6.28
2022-11-20T01:04:36.000Z,6.28
2022-11-20T01:07:03.772Z,6.45
2022-11-20T01:09:31.139Z,6.72
2022-11-20T01:11:58.864Z,6.03
2022-11-20T01:14:26.507Z,6.82
2022-11-20T01:16:55.946Z,5.95
2022-11-20T01:19:25.079Z,7.25
2022-11-20T01:21:54.995Z,8.52
2022-11-20T01:24:23.264Z,9.95
2022-11-20T01:26:52.197Z,9.68
2022-11-20T01:29:21.567Z,9.10
2022-11-20T01:31:49.722Z,5.90
2022-11-20T01:34:20.756Z,7.50
2022-11-20T01:36:49.161Z,6.53
2022-11-20T01:39:18.933Z,6.68
2022-11-20T01:41:47.742Z,7.55
2022-11-20T01:44:17.931Z,7.97
2022-11-20T01:46:55.013Z,7.65
2022-11-20T01:49:27.931Z,7.13
2022-11-20T01:54:32.583Z,6.25
2022-11-20T01:57:01.880Z,7.63
2022-11-20T01:59:31.065Z,8.25
2022-11-20T02:02:00.552Z,8.20
2022-11-20T02:04:29.716Z,8.35
2022-11-20T02:07:01.762Z,7.35
2022-11-20T02:09:29.634Z,8.90
2022-11-20T02:11:59.714Z,9.40
2022-11-20T02:14:27.769Z,9.80
2022-11-20T02:16:56.231Z,9.38
2022-11-20T02:19:25.725Z,7.60
2022-11-20T02:22:02.796Z,8.68
2022-11-20T02:24:32.092Z,8.95
2022-11-20T02:27:03.238Z,6.78
2022-11-20T02:29:37.117Z,8.55
2022-11-20T02:32:05.168Z,10.48
2022-11-20T02:34:32.870Z,8.90
2022-11-20T02:37:01.175Z,9.27
2022-11-20T02:39:29.484Z,8.30
2022-11-20T02:41:58.723Z,9.82
2022-11-20T02:44:26.041Z,9.88
2022-11-20T02:46:53.686Z,8.18
2022-11-20T02:49:21.529Z,7.10
2022-11-20T02:51:49.484Z,10.25
2022-11-20T02:54:16.867Z,9.02
2022-11-20T02:56:44.891Z,10.88
2022-11-20T02:59:13.718Z,8.15
2022-11-20T03:01:41.633Z,10.82
2022-11-20T03:04:09.143Z,10.07
2022-11-20T03:06:37.008Z,8.38
2022-11-20T03:09:04.528Z,9.63
2022-11-20T03:11:32.383Z,7.93
2022-11-20T03:14:03.224Z,7.75
2022-11-20T03:16:32.971Z,8.75
2022-11-20T03:19:01.356Z,7.97
2022-11-20T03:21:28.764Z,8.63
2022-11-20T03:23:56.546Z,9.98
2022-11-20T03:26:25.987Z,11.15
2022-11-20T03:28:55.504Z,9.77
2022-11-20T03:31:25.979Z,8.85
2022-11-20T03:33:56.608Z,6.47
2022-11-20T03:36:24.542Z,7.93
2022-11-20T03:38:53.853Z,7.18
2022-11-20T03:41:22.901Z,8.85
2022-11-20T03:43:51.311Z,8.10
2022-11-20T03:46:18.846Z,9.60
2022-11-20T03:48:51.377Z,7.88
2022-11-20T03:51:23.076Z,8.40
2022-11-20T03:53:53.197Z,7.60
2022-11-20T03:56:23.954Z,8.98
2022-11-20T03:58:51.850Z,7.88
2022-11-20T04:01:20.889Z,8.80
2022-11-20T04:03:49.583Z,6.68
2022-11-20T04:06:24.077Z,7.80
2022-11-20T04:08:53.955Z,7.88
2022-11-20T04:11:22.892Z,8.02
2022-11-20T04:13:53.990Z,8.30
2022-11-20T04:16:22.483Z,8.95
2022-11-20T04:18:53.487Z,6.47
2022-11-20T04:21:21.204Z,8.50
2022-11-20T04:23:50.720Z,7.40
2022-11-20T04:26:18.633Z,9.98
2022-11-20T04:28:46.614Z,8.98
2022-11-20T04:31:17.458Z,8.55
2022-11-20T04:33:45.615Z,9.63
2022-11-20T04:36:15.617Z,7.85
2022-11-20T04:38:43.952Z,8.60
2022-11-20T04:41:16.631Z,8.43
2022-11-20T04:43:47.657Z,6.53
2022-11-20T04:46:15.184Z,9.00
2022-11-20T04:48:43.672Z,9.60
2022-11-20T04:51:10.886Z,8.90
2022-11-20T04:53:38.876Z,8.73
2022-11-20T04:56:08.660Z,8.25
2022-11-20T04:58:38.603Z,8.80
2022-11-20T05:01:07.593Z,8.88
2022-11-20T05:03:39.677Z,8.93
2022-11-20T05:06:10.963Z,9.55
2022-11-20T05:08:39.039Z,10.02
2022-11-20T05:11:08.263Z,7.72
2022-11-20T05:13:37.815Z,9.02
2022-11-20T05:16:07.303Z,7.30
2022-11-20T05:18:35.601Z,6.35
2022-11-20T05:21:03.266Z,9.35
2022-11-20T05:23:32.398Z,9.88
2022-11-20T05:26:00.683Z,8.57
2022-11-20T05:28:29.634Z,8.05
2022-11-20T05:31:05.751Z,9.77
2022-11-20T05:33:34.395Z,10.82
2022-11-20T05:36:02.357Z,8.00
2022-11-20T05:38:30.607Z,9.57
2022-11-20T05:41:04.746Z,8.90
2022-11-20T05:43:33.820Z,8.00
2022-11-20T05:46:03.594Z,9.88
2022-11-20T05:48:33.523Z,9.23
2022-11-20T05:51:02.226Z,8.25
2022-11-20T05:53:30.723Z,8.77
2022-11-20T05:55:59.278Z,7.32
2022-11-20T05:58:27.557Z,9.85
2022-11-20T06:00:55.046Z,10.65
2022-11-20T06:03:24.716Z,10.15
2022-11-20T06:05:52.234Z,11.13
2022-11-20T06:08:20.134Z,11.20
2022-11-20T06:10:47.493Z,9.77
2022-11-20T06:13:15.270Z,10.10
2022-11-20T06:15:42.657Z,10.68
2022-11-20T06:18:10.472Z,10.77
2022-11-20T06:20:42.072Z,10.07
2022-11-20T06:23:10.168Z,8.90
2022-11-20T06:25:38.908Z,7.75
2022-11-20T06:28:07.448Z,7.78
2022-11-20T06:30:35.177Z,7.00
2022-11-20T06:33:03.588Z,9.57
2022-11-20T06:35:30.966Z,8.65
2022-11-20T06:38:00.579Z,9.20
2022-11-20T06:40:28.072Z,10.65
2022-11-20T06:42:55.972Z,9.60
2022-11-20T06:45:23.421Z,11.40
2022-11-20T06:47:51.175Z,10.35
2022-11-20T06:50:18.505Z,9.63
2022-11-20T06:52:46.444Z,9.05
2022-11-20T06:55:15.505Z,11.02
2022-11-20T06:57:43.519Z,9.10
2022-11-20T07:00:12.377Z,10.60
2022-11-20T07:02:40.242Z,7.82
2022-11-20T07:05:08.125Z,7.85
2022-11-20T07:07:36.055Z,11.10
2022-11-20T07:10:06.832Z,12.07
2022-11-20T07:12:36.938Z,11.65
2022-11-20T07:15:05.224Z,11.27
2022-11-20T07:17:33.022Z,9.95
2022-11-20T07:20:00.347Z,11.68
2022-11-20T07:22:28.272Z,11.63
2022-11-20T07:24:55.712Z,11.45
2022-11-20T07:27:23.497Z,12.05
2022-11-20T07:29:52.458Z,12.32
2022-11-20T07:32:20.396Z,11.40
2022-11-20T07:34:47.905Z,10.73
2022-11-20T07:37:16.650Z,13.77
2022-11-20T07:39:44.438Z,9.55
2022-11-20T07:42:12.645Z,11.82
2022-11-20T07:44:40.061Z,11.68
2022-11-20T07:47:09.275Z,11.48
2022-11-20T07:49:36.850Z,11.48
2022-11-20T07:52:05.524Z,13.75
2022-11-20T07:54:33.042Z,13.20
2022-11-20T07:57:00.847Z,12.82
2022-11-20T07:59:28.306Z,11.15
2022-11-20T08:01:56.487Z,13.43
2022-11-20T08:04:25.502Z,13.85
2022-11-20T08:06:53.535Z,13.43
2022-11-20T08:09:22.246Z,12.88
2022-11-20T08:11:50.524Z,12.07
2022-11-20T08:14:18.049Z,13.85
2022-11-20T08:16:48.052Z,13.32
2022-11-20T08:19:16.846Z,13.82
2022-11-20T08:21:49.427Z,10.50
2022-11-20T08:24:17.095Z,12.68
2022-11-20T08:26:44.986Z,11.38
2022-11-20T08:29:12.680Z,10.13
2022-11-20T08:31:40.736Z,12.07
2022-11-20T08:34:28.245Z,13.30
2022-11-20T08:36:57.823Z,14.75
2022-11-20T08:39:25.489Z,11.85
2022-11-20T08:41:53.751Z,13.02
2022-11-20T08:44:21.241Z,11.57
2022-11-20T08:46:49.095Z,11.63
2022-11-20T08:49:19.369Z,10.43
2022-11-20T08:51:47.880Z,11.80
2022-11-20T08:54:17.048Z,12.48
2022-11-20T08:56:44.807Z,14.20
2022-11-20T08:59:50.760Z,14.55
2022-11-20T09:02:00.410Z,12.50
2022-11-20T09:04:28.094Z,11.18
2022-11-20T09:06:55.869Z,12.07
2022-11-20T09:09:24.886Z,12.55
2022-11-20T09:11:53.070Z,12.02
2022-11-20T09:14:20.521Z,10.48
2022-11-20T09:16:48.294Z,10.65
2022-11-20T09:22:04.149Z,9.27
2022-11-20T09:24:33.074Z,11.38
2022-11-20T09:27:04.554Z,10.98
2022-11-20T09:29:31.968Z,9.55
2022-11-20T09:32:00.093Z,9.05
2022-11-20T09:34:28.096Z,8.02
2022-11-20T09:36:55.838Z,8.75
2022-11-20T09:39:23.601Z,10.32
2022-11-20T09:42:21.765Z,8.35
2022-11-20T09:45:10.508Z,7.95
2022-11-20T09:47:49.315Z,9.85
2022-11-20T09:50:32.216Z,9.02
2022-11-20T09:53:13.130Z,9.27
2022-11-20T09:55:41.317Z,10.30
2022-11-20T09:58:16.963Z,10.77
2022-11-20T10:00:45.700Z,10.52
2022-11-20T10:03:17.936Z,11.25
2022-11-20T10:05:48.422Z,9.10
2022-11-20T10:08:21.669Z,9.88
2022-11-20T10:10:54.280Z,8.70
2022-11-20T10:16:09.405Z,8.38
2022-11-20T10:18:49.341Z,8.45
2022-11-20T10:21:28.605Z,10.73
2022-11-20T10:24:14.641Z,7.35
2022-11-20T10:26:53.446Z,9.98
2022-11-20T10:29:33.678Z,9.38
2022-11-20T10:32:04.356Z,9.50
2022-11-20T10:34:40.495Z,7.45
2022-11-20T10:37:14.364Z,7.68
2022-11-20T10:39:51.743Z,8.20
2022-11-20T10:42:29.121Z,10.35
2022-11-20T10:45:10.920Z,7.53
2022-11-20T10:47:38.392Z,9.57
2022-11-20T10:50:15.319Z,7.90
2022-11-20T10:52:53.468Z,8.38
2022-11-20T10:55:31.454Z,7.78
2022-11-20T10:58:05.276Z,6.95
2022-11-20T11:00:34.934Z,7.57
2022-11-20T11:03:02.478Z,8.70
2022-11-20T11:05:39.790Z,7.22
2022-11-20T11:08:13.370Z,8.80
2022-11-20T11:10:47.482Z,7.38
2022-11-20T11:13:22.092Z,8.93
2022-11-20T11:15:52.282Z,9.00
2022-11-20T11:18:25.928Z,7.95
2022-11-20T11:20:55.828Z,8.68
2022-11-20T11:23:43.917Z,10.50
2022-11-20T11:26:21.637Z,8.70
2022-11-20T11:28:55.673Z,8.55
2022-11-20T11:31:27.695Z,8.30
2022-11-20T11:34:05.475Z,9.18
2022-11-20T11:36:34.801Z,9.18
2022-11-20T11:39:03.741Z,7.93
2022-11-20T11:41:34.719Z,7.72
2022-11-20T11:44:16.547Z,8.68
2022-11-20T11:46:54.626Z,7.15
2022-11-20T11:49:23.122Z,8.48
2022-11-20T11:52:07.082Z,6.95
2022-11-20T11:54:39.704Z,8.35
2022-11-20T11:57:19.100Z,7.38
2022-11-20T12:02:36.127Z,6.28
2022-11-20T12:05:14.443Z,5.30
2022-11-20T12:07:47.605Z,5.47
2022-11-20T12:10:23.898Z,5.93
2022-11-20T12:12:56.985Z,5.55
2022-11-20T12:15:30.194Z,5.55
2022-11-20T12:18:00.126Z,5.25
2022-11-20T12:20:32.886Z,6.03
2022-11-20T12:23:09.977Z,6.45
2022-11-20T12:25:39.316Z,6.63
2022-11-20T12:28:24.028Z,6.35
2022-11-20T12:31:12.191Z,6.32
2022-11-20T12:34:21.920Z,5.03
2022-11-20T12:36:56.526Z,6.32
2022-11-20T12:39:35.128Z,6.18
2022-11-20T12:42:24.579Z,7.47
2022-11-20T12:45:15.897Z,7.47
2022-11-20T12:47:55.299Z,7.68
2022-11-20T12:50:53.248Z,6.50
2022-11-20T12:53:30.392Z,6.80
2022-11-20T12:56:07.158Z,7.60
2022-11-20T12:58:44.403Z,8.20
2022-11-20T13:01:30.305Z,8.07
2022-11-20T13:06:29.954Z,8.07
2022-11-20T13:08:57.734Z,10.00
2022-11-20T13:11:33.464Z,9.80
2022-11-20T13:14:17.759Z,9.95
2022-11-20T13:16:53.483Z,11.80
2022-11-20T13:19:22.055Z,8.60
2022-11-20T13:21:52.258Z,11.07
2022-11-20T13:24:26.483Z,10.32
2022-11-20T13:27:06.935Z,8.75
2022-11-20T13:29:35.183Z,8.55
2022-11-20T13:32:14.127Z,7.75
2022-11-20T13:34:53.187Z,7.93
2022-11-20T13:37:32.201Z,7.15
2022-11-20T13:40:23.069Z,7.38
2022-11-20T13:43:02.256Z,7.25
2022-11-20T13:45:32.234Z,6.95
2022-11-20T13:48:06.829Z,7.90
2022-11-20T13:50:46.966Z,7.18
2022-11-20T13:53:33.227Z,7.00
2022-11-20T13:56:12.333Z,6.90
2022-11-20T13:58:54.353Z,6.45
2022-11-20T14:01:24.640Z,6.72
2022-11-20T14:04:09.606Z,6.65
2022-11-20T14:06:43.513Z,6.50
2022-11-20T14:09:30.178Z,6.10
2022-11-20T14:11:57.964Z,6.72
2022-11-20T14:14:28.085Z,7.00
2022-11-20T14:17:06.795Z,7.07
2022-11-20T14:19:40.418Z,7.30
2022-11-20T14:22:11.621Z,7.80
2022-11-20T14:24:41.481Z,7.75
2022-11-20T14:27:15.240Z,7.20
2022-11-20T14:29:44.961Z,9.40
2022-11-20T14:32:15.578Z,7.85
2022-11-20T14:34:47.074Z,8.18
2022-11-20T14:37:22.101Z,8.95
2022-11-20T14:39:57.412Z,8.73
2022-11-20T14:42:27.585Z,8.27
2022-11-20T14:44:59.031Z,7.50
2022-11-20T14:47:29.207Z,7.10
2022-11-20T14:49:59.084Z,7.28
2022-11-20T14:52:28.553Z,7.25
2022-11-20T14:55:00.090Z,8.20
2022-11-20T14:57:29.403Z,8.40
2022-11-20T15:00:19.246Z,7.00
2022-11-20T15:02:48.333Z,7.13
2022-11-20T15:05:18.341Z,20.35
2022-11-20T15:07:47.806Z,11.90
2022-11-20T15:10:24.368Z,8.70
2022-11-20T15:12:54.139Z,10.20
2022-11-20T15:15:26.811Z,10.85
2022-11-20T15:17:55.020Z,17.05
2022-11-20T15:20:33.494Z,15.70
2022-11-20T15:23:01.432Z,16.15
2022-11-20T15:25:30.879Z,9.73
2022-11-20T15:27:58.735Z,15.63
2022-11-20T15:30:27.210Z,13.50
2022-11-20T15:32:54.743Z,11.70
2022-11-20T15:35:22.903Z,35.55
2022-11-20T15:37:50.473Z,31.40
2022-11-20T15:40:22.569Z,14.02
2022-11-20T15:42:51.726Z,11.38
2022-11-20T15:45:20.527Z,12.93
2022-11-20T15:47:50.389Z,12.77
2022-11-20T15:50:23.018Z,12.82
2022-11-20T15:52:50.611Z,11.93
2022-11-20T15:55:18.635Z,13.02
2022-11-20T15:57:46.017Z,13.98
2022-11-20T16:00:23.760Z,15.13
2022-11-20T16:02:51.484Z,9.68
2022-11-20T16:05:19.446Z,10.50
2022-11-20T16:07:47.153Z,10.88
2022-11-20T16:10:15.444Z,11.55
2022-11-20T16:12:43.095Z,9.13
2022-11-20T16:15:13.765Z,9.32
2022-11-20T16:17:42.927Z,9.15
2022-11-20T16:20:15.597Z,15.45
2022-11-20T16:22:43.014Z,12.10
2022-11-20T16:25:10.940Z,9.23
2022-11-20T16:27:38.890Z,10.85
2022-11-20T16:30:08.750Z,9.65
2022-11-20T16:32:36.629Z,8.05
2022-11-20T16:35:07.844Z,8.73
2022-11-20T16:37:35.648Z,9.63
2022-11-20T16:40:04.140Z,9.25
2022-11-20T16:42:34.806Z,9.40
2022-11-20T16:45:03.058Z,9.55
2022-11-20T16:47:34.123Z,10.50
2022-11-20T16:50:02.070Z,8.35
2022-11-20T16:52:31.993Z,8.35
2022-11-20T16:54:59.807Z,8.63
2022-11-20T16:57:28.990Z,9.85
2022-11-20T17:00:01.895Z,9.60
2022-11-20T17:04:57.766Z,8.63
2022-11-20T17:07:25.414Z,12.38
2022-11-20T17:09:57.097Z,18.27
2022-11-20T17:12:24.575Z,11.75
2022-11-20T17:14:52.467Z,11.35
2022-11-20T17:17:20.214Z,11.88
2022-11-20T17:19:48.594Z,11.20
2022-11-20T17:22:16.239Z,12.85
2022-11-20T17:24:44.392Z,10.25
2022-11-20T17:27:13.194Z,11.43
2022-11-20T17:29:42.316Z,10.77
2022-11-20T17:32:09.997Z,12.75
2022-11-20T17:34:37.915Z,13.98
2022-11-20T17:37:05.655Z,13.90
2022-11-20T17:39:35.025Z,13.07
2022-11-20T17:42:05.631Z,13.63
2022-11-20T17:45:16.093Z,13.05
2022-11-20T17:47:45.260Z,14.10
2022-11-20T17:50:13.534Z,12.75
2022-11-20T17:52:41.329Z,13.45
2022-11-20T17:55:11.888Z,17.90
2022-11-20T17:57:39.541Z,14.63
2022-11-20T18:00:08.574Z,14.45
2022-11-20T18:02:36.226Z,14.25
2022-11-20T18:05:10.822Z,15.27
2022-11-20T18:07:41.919Z,13.02
2022-11-20T18:10:10.501Z,14.02
2022-11-20T18:12:40.221Z,12.02
2022-11-20T18:18:32.000Z,11.40
2022-11-20T18:21:01.705Z,13.90
2022-11-20T18:23:29.483Z,19.05
2022-11-20T18:54:19.964Z,12.88
2022-11-20T18:56:47.878Z,14.13
2022-11-20T18:59:15.875Z,13.15
2022-11-20T19:01:44.402Z,12.20
2022-11-20T19:04:14.046Z,13.98
2022-11-20T19:06:43.614Z,14.13
2022-11-20T19:09:13.331Z,13.82
2022-11-20T19:11:45.644Z,13.55
2022-11-20T19:14:12.992Z,12.93
2022-11-20T19:16:40.881Z,12.30
2022-11-20T19:19:08.467Z,12.75
2022-11-20T19:21:36.712Z,11.05
2022-11-20T19:24:04.850Z,12.05
2022-11-20T19:26:35.501Z,12.98
2022-11-20T19:29:05.136Z,11.35
2022-11-20T19:31:33.454Z,11.23
2022-11-20T19:34:04.044Z,11.82
2022-11-20T19:36:33.308Z,12.13
2022-11-20T19:39:01.462Z,12.05
2022-11-20T19:41:30.854Z,11.55
2022-11-20T19:44:00.030Z,10.98
2022-11-20T19:46:33.691Z,11.85
2022-11-20T19:49:01.810Z,14.15
2022-11-20T19:51:32.574Z,14.43
2022-11-20T19:54:01.043Z,14.15
2022-11-20T19:56:31.255Z,17.45
2022-11-20T19:58:59.381Z,14.93
2022-11-20T20:01:29.052Z,15.07
2022-11-20T20:03:59.821Z,13.95
2022-11-20T20:06:28.865Z,13.90
2022-11-20T20:08:57.935Z,14.98
2022-11-20T20:11:28.312Z,12.85
2022-11-20T20:13:55.782Z,13.18
2022-11-20T20:16:25.241Z,12.60
2022-11-20T20:18:57.779Z,12.10
2022-11-20T20:21:26.252Z,13.50
2022-11-20T20:23:55.382Z,12.63
2022-11-20T20:26:24.941Z,12.90
2022-11-20T20:28:52.786Z,12.82
2022-11-20T20:31:23.832Z,13.02
2022-11-20T20:33:51.944Z,11.93
2022-11-20T20:36:22.955Z,13.20
2022-11-20T20:38:52.481Z,12.05
2022-11-20T20:41:21.639Z,14.63
2022-11-20T20:43:49.356Z,10.35
2022-11-20T20:46:17.527Z,11.40
2022-11-20T20:48:48.996Z,11.75
2022-11-20T20:51:21.150Z,12.38
2022-11-20T20:53:48.976Z,13.93
2022-11-20T20:56:17.911Z,10.45
2022-11-20T20:58:45.515Z,13.40
2022-11-20T21:01:15.118Z,14.15
2022-11-20T21:03:42.934Z,11.93
2022-11-20T21:06:12.001Z,13.70
2022-11-20T21:08:44.103Z,13.85
2022-11-20T21:11:14.155Z,21.70
2022-11-20T21:13:43.643Z,18.05
2022-11-20T21:16:12.794Z,13.98
2022-11-20T21:18:40.345Z,26.05
2022-11-20T21:21:11.549Z,22.45
2022-11-20T21:23:40.869Z,16.40
2022-11-20T21:26:09.742Z,16.70
2022-11-20T21:28:37.756Z,14.05
2022-11-20T21:31:07.912Z,13.65
2022-11-20T21:33:39.703Z,16.13
2022-11-20T21:36:08.845Z,12.85
2022-11-20T21:38:36.640Z,13.25
2022-11-20T21:41:07.836Z,13.55
2022-11-20T21:43:35.713Z,14.02
2022-11-20T21:46:05.142Z,15.80
2022-11-20T21:48:34.193Z,15.55
2022-11-20T21:51:05.505Z,12.43
2022-11-20T21:53:34.596Z,12.73
2022-11-20T21:56:03.495Z,13.20
2022-11-20T21:58:32.610Z,14.07
2022-11-20T22:01:07.354Z,12.95
2022-11-20T22:03:38.044Z,15.30
2022-11-20T22:06:07.345Z,13.48
2022-11-20T22:08:35.773Z,14.05
2022-11-20T22:11:05.864Z,11.85
2022-11-20T22:13:43.514Z,11.43
2022-11-20T22:16:11.865Z,11.90
2022-11-20T22:18:45.115Z,12.00
2022-11-20T22:21:13.870Z,11.38
2022-11-20T22:23:41.350Z,11.05
2022-11-20T22:26:11.465Z,13.02
2022-11-20T22:28:40.955Z,11.73
2022-11-20T22:31:10.659Z,10.57
2022-11-20T22:33:39.005Z,11.50
2022-11-20T22:36:10.862Z,9.48
2022-11-20T22:38:39.640Z,11.80
2022-11-20T22:41:11.036Z,11.63
2022-11-20T22:43:40.318Z,9.98
2022-11-20T22:46:10.180Z,10.02
2022-11-20T22:48:40.301Z,10.65
2022-11-20T22:51:09.463Z,11.68
2022-11-20T22:53:37.112Z,12.57
2022-11-20T22:56:07.686Z,12.40
2022-11-20T22:58:37.372Z,14.48
2022-11-20T23:01:11.589Z,12.73
2022-11-20T23:03:40.594Z,9.38
2022-11-20T23:06:09.287Z,13.10
2022-11-20T23:08:37.433Z,13.00
2022-11-20T23:11:07.505Z,12.63
2022-11-20T23:13:35.975Z,12.45
2022-11-20T23:16:06.308Z,12.07
2022-11-20T23:18:36.581Z,12.05
2022-11-20T23:21:05.687Z,13.63
2022-11-20T23:23:33.434Z,14.85
2022-11-20T23:26:02.955Z,16.83
2022-11-20T23:28:30.758Z,17.98
2022-11-20T23:30:58.786Z,16.70
2022-11-20T23:33:26.304Z,18.60
2022-11-20T23:35:55.753Z,17.73
2022-11-20T23:38:23.354Z,17.77
2022-11-20T23:40:52.511Z,18.67
2022-11-20T23:43:21.289Z,20.27
2022-11-20T23:45:50.890Z,17.58
2022-11-20T23:48:19.328Z,18.15
2022-11-20T23:50:48.273Z,19.63
2022-11-20T23:53:18.200Z,17.73
2022-11-20T23:55:47.153Z,20.00
2022-11-20T23:58:15.116Z,21.60
